Time;durP1;ratioP1;P1;durP2;ratioP2;P2;SDS_P1;SDS_P2;PMS_P1;PMS_P2;Temp;Humidity;BMP_temperature;BMP_pressure;BME280_temperature;BME280_humidity;BME280_pressure;Samples;Min_cycle;Max_cycle;Signal;HPM_P1;HPM_P2
2023/05/16 00:01:15;;;;;;;20.77;6.88;;;;;;;22.73;27.17;99893.00;5014088;28;20037;-69
2023/05/16 00:03:42;;;;;;;28.08;7.80;;;;;;;22.91;27.01;99895.63;4993928;28;20037;-71
2023/05/16 00:06:08;;;;;;;25.83;7.82;;;;;;;22.82;27.10;99896.19;4997046;28;20046;-69
2023/05/16 00:08:35;;;;;;;28.20;7.65;;;;;;;22.80;27.22;99888.28;4998189;28;20045;-69
2023/05/16 00:11:01;;;;;;;24.83;7.40;;;;;;;22.81;27.04;99891.84;4982097;28;20053;-68
2023/05/16 00:13:28;;;;;;;22.83;7.28;;;;;;;23.01;27.31;99887.78;4981357;28;20049;-69
2023/05/16 00:15:55;;;;;;;23.63;7.18;;;;;;;22.71;27.21;99886.16;4998032;28;20138;-69
2023/05/16 00:18:21;;;;;;;24.30;7.30;;;;;;;22.89;27.15;99886.09;4997708;28;20417;-69
2023/05/16 00:20:50;;;;;;;24.65;7.15;;;;;;;22.96;27.16;99882.22;5014136;28;20052;-69
2023/05/16 00:23:16;;;;;;;24.38;7.28;;;;;;;22.72;27.13;99877.81;4982180;28;20143;-69
2023/05/16 00:25:42;;;;;;;23.08;7.45;;;;;;;22.76;27.15;99881.69;4981489;28;20083;-69
2023/05/16 00:28:08;;;;;;;19.23;6.93;;;;;;;22.76;27.08;99887.13;4997778;28;20466;-69
2023/05/16 00:30:34;;;;;;;26.60;7.72;;;;;;;22.87;27.01;99889.03;4990336;28;20429;-69
2023/05/16 00:33:01;;;;;;;26.88;8.88;;;;;;;22.91;26.98;99892.13;5027107;28;20378;-69
2023/05/16 00:35:29;;;;;;;20.63;6.47;;;;;;;22.99;26.91;99886.34;5013199;28;20045;-69
2023/05/16 00:37:55;;;;;;;21.08;7.28;;;;;;;22.95;26.71;99883.31;5014347;28;20048;-69
2023/05/16 00:40:21;;;;;;;23.10;7.88;;;;;;;23.04;26.92;99886.47;5030842;28;20133;-69
2023/05/16 00:42:47;;;;;;;30.25;6.65;;;;;;;23.04;26.82;99890.03;5013937;28;20096;-69
2023/05/16 00:45:14;;;;;;;23.73;7.35;;;;;;;23.09;26.69;99884.72;5013960;28;20140;-69
2023/05/16 00:47:39;;;;;;;29.42;8.30;;;;;;;23.09;26.84;99879.31;5013214;28;20136;-68
2023/05/16 00:50:06;;;;;;;36.05;11.48;;;;;;;23.05;27.26;99891.66;4996225;28;20496;-69
2023/05/16 00:52:34;;;;;;;35.22;11.25;;;;;;;23.05;27.33;99894.38;5012043;28;20490;-69
2023/05/16 00:55:03;;;;;;;31.23;9.45;;;;;;;23.01;27.43;99901.34;5028000;28;20141;-69
2023/05/16 00:57:32;;;;;;;29.50;8.85;;;;;;;22.64;28.55;99890.84;5012637;28;20072;-69
2023/05/16 00:59:59;;;;;;;35.22;9.10;;;;;;;22.78;28.70;99908.56;5027913;28;20112;-69
2023/05/16 01:02:27;;;;;;;36.85;11.32;;;;;;;22.64;28.99;99909.78;4995501;28;20042;-69
2023/05/16 01:04:53;;;;;;;37.38;11.35;;;;;;;22.37;29.23;99906.56;5012176;28;20057;-69
2023/05/16 01:07:19;;;;;;;38.33;11.18;;;;;;;21.97;29.65;99907.25;4997533;28;20054;-69
2023/05/16 01:09:46;;;;;;;40.58;11.65;;;;;;;21.86;30.18;99911.53;5013495;28;20076;-69
2023/05/16 01:12:26;;;;;;;39.70;10.57;;;;;;;22.22;30.04;99911.53;5013579;28;20052;-69
2023/05/16 01:15:05;;;;;;;40.95;9.63;;;;;;;22.19;30.29;99913.91;5029759;28;20080;-69
2023/05/16 01:17:38;;;;;;;30.00;8.63;;;;;;;22.04;30.11;99916.97;5011657;28;20099;-69
2023/05/16 01:20:26;;;;;;;24.52;8.38;;;;;;;22.05;30.17;99913.19;5011647;28;20065;-69
2023/05/16 01:23:23;;;;;;;27.80;8.63;;;;;;;22.24;30.25;99912.16;5027792;28;20081;-69
2023/05/16 01:26:21;;;;;;;40.28;9.25;;;;;;;21.85;30.66;99914.47;5028020;28;20046;-69
2023/05/16 01:28:48;;;;;;;32.67;7.43;;;;;;;21.13;31.74;99909.66;5025185;28;20038;-69
2023/05/16 01:31:15;;;;;;;32.28;7.32;;;;;;;20.99;31.70;99913.50;5028426;28;20437;-68
2023/05/16 01:33:41;;;;;;;25.15;7.85;;;;;;;20.91;31.95;99911.06;5029918;28;20077;-68
2023/05/16 01:36:06;;;;;;;27.20;7.47;;;;;;;20.85;31.86;99910.03;5030157;28;20076;-69
2023/05/16 01:38:39;;;;;;;23.27;6.90;;;;;;;21.32;31.69;99914.94;5030046;28;20512;-69
2023/05/16 01:41:15;;;;;;;19.27;6.28;;;;;;;21.46;31.19;99907.53;5013902;28;20049;-69
2023/05/16 01:43:44;;;;;;;23.02;6.75;;;;;;;21.38;31.25;99905.94;5030312;28;20520;-69
2023/05/16 01:46:13;;;;;;;19.55;6.15;;;;;;;21.28;31.49;99900.19;5012814;28;20052;-69
2023/05/16 01:48:48;;;;;;;15.55;6.35;;;;;;;21.29;31.48;99903.72;5029658;28;20049;-68
2023/05/16 01:51:14;;;;;;;32.25;7.88;;;;;;;21.12;31.01;99903.44;5013201;28;20083;-69
2023/05/16 01:53:44;;;;;;;22.58;7.25;;;;;;;21.25;30.57;99906.03;4996956;28;20165;-69
2023/05/16 01:56:15;;;;;;;21.55;5.85;;;;;;;21.65;30.94;99910.03;4999681;28;20052;-69
2023/05/16 01:58:42;;;;;;;26.00;6.93;;;;;;;21.08;31.70;99912.22;4998652;28;20072;-69
2023/05/16 02:01:08;;;;;;;31.00;6.43;;;;;;;20.97;31.37;99910.22;5002244;28;20488;-70
2023/05/16 02:03:36;;;;;;;28.00;6.43;;;;;;;20.89;31.80;99910.44;5035412;28;20087;-69
2023/05/16 02:06:03;;;;;;;17.33;5.70;;;;;;;20.72;31.90;99914.69;5001943;28;20114;-69
2023/05/16 02:08:30;;;;;;;25.63;6.30;;;;;;;21.08;31.39;99910.31;5002138;28;20087;-69
2023/05/16 02:10:56;;;;;;;18.23;5.68;;;;;;;20.78;31.86;99914.66;4985479;28;20049;-69
2023/05/16 02:13:23;;;;;;;20.23;5.60;;;;;;;20.77;32.27;99912.97;5002102;28;20045;-69
2023/05/16 02:15:49;;;;;;;26.92;5.85;;;;;;;20.82;32.28;99912.34;5017873;28;20534;-69
2023/05/16 02:18:15;;;;;;;14.32;5.15;;;;;;;20.76;32.28;99913.19;5034189;28;20135;-69
2023/05/16 02:20:42;;;;;;;18.60;5.53;;;;;;;20.63;32.25;99910.59;5001971;28;20500;-68
2023/05/16 02:23:09;;;;;;;23.67;5.10;;;;;;;20.58;31.91;99910.41;5001939;28;20056;-68
2023/05/16 02:25:35;;;;;;;25.73;4.95;;;;;;;20.80;32.12;99909.88;5000138;28;20428;-69
2023/05/16 02:28:01;;;;;;;12.77;4.55;;;;;;;20.46;32.08;99923.75;4984221;28;20044;-69
2023/05/16 02:30:27;;;;;;;11.20;3.90;;;;;;;20.38;32.00;99921.28;5000675;28;20044;-68
2023/05/16 02:32:53;;;;;;;14.65;4.28;;;;;;;20.48;32.02;99921.66;5030896;28;20049;-69
2023/05/16 02:35:19;;;;;;;14.95;4.43;;;;;;;20.37;31.53;99919.66;4999185;28;20377;-68
2023/05/16 02:37:46;;;;;;;8.13;3.50;;;;;;;20.39;31.55;99927.53;4998902;28;20090;-68
2023/05/16 02:40:12;;;;;;;7.65;2.78;;;;;;;20.85;30.90;99925.41;4999346;28;20477;-68
2023/05/16 02:42:39;;;;;;;7.75;3.30;;;;;;;20.96;31.06;99922.03;4982937;28;20048;-68
2023/05/16 02:45:05;;;;;;;6.93;2.83;;;;;;;20.91;30.68;99932.66;4982996;28;20144;-69
2023/05/16 02:47:33;;;;;;;11.43;3.90;;;;;;;20.89;30.96;99929.34;5015637;28;20041;-68
2023/05/16 02:50:01;;;;;;;11.73;3.20;;;;;;;20.92;30.62;99932.44;4994672;28;20045;-69
2023/05/16 02:52:31;;;;;;;15.68;3.40;;;;;;;21.12;30.66;99932.31;5015335;28;20391;-69
2023/05/16 02:54:58;;;;;;;7.38;3.13;;;;;;;21.25;30.68;99926.84;4998531;28;20041;-68
2023/05/16 02:57:24;;;;;;;11.27;4.10;;;;;;;21.29;30.83;99931.59;5013779;28;20138;-69
2023/05/16 02:59:51;;;;;;;13.38;3.70;;;;;;;21.20;30.53;99927.47;5013926;28;20049;-69
2023/05/16 03:02:16;;;;;;;15.13;3.60;;;;;;;21.29;30.57;99925.34;5013907;28;20152;-70
2023/05/16 03:04:42;;;;;;;15.00;4.38;;;;;;;21.08;30.81;99928.41;5014064;28;20140;-70
2023/05/16 03:07:08;;;;;;;15.57;4.63;;;;;;;21.07;30.91;99932.16;5013825;28;20408;-70
2023/05/16 03:09:34;;;;;;;14.57;2.83;;;;;;;20.94;30.18;99924.13;5013958;28;20496;-70
2023/05/16 03:12:00;;;;;;;11.60;3.40;;;;;;;21.20;30.37;99915.84;5013915;28;20535;-69
2023/05/16 03:14:26;;;;;;;17.33;4.00;;;;;;;21.21;30.39;99921.03;5013742;28;20049;-70
2023/05/16 03:16:52;;;;;;;5.90;2.88;;;;;;;21.19;30.30;99922.28;5013619;28;20045;-68
2023/05/16 03:19:19;;;;;;;14.00;3.25;;;;;;;21.34;30.21;99928.22;5013439;28;20065;-67
2023/05/16 03:21:45;;;;;;;17.95;3.63;;;;;;;21.23;30.25;99934.31;4981310;28;20046;-67
2023/05/16 03:24:12;;;;;;;8.15;3.28;;;;;;;21.33;30.29;99929.25;5013856;28;20497;-67
2023/05/16 03:26:38;;;;;;;15.90;3.42;;;;;;;21.28;30.17;99932.63;5013417;28;20087;-67
2023/05/16 03:29:04;;;;;;;18.13;3.58;;;;;;;21.41;30.04;99928.97;5013121;28;20452;-67
2023/05/16 03:31:31;;;;;;;17.35;4.15;;;;;;;21.67;30.15;99935.00;5013196;28;20565;-68
2023/05/16 03:33:58;;;;;;;8.57;3.13;;;;;;;21.31;29.60;99929.47;4997169;28;20077;-67
2023/05/16 03:36:26;;;;;;;13.20;3.45;;;;;;;21.78;30.19;99930.75;5000313;28;20080;-69
2023/05/16 03:38:52;;;;;;;18.83;3.90;;;;;;;21.43;29.88;99932.28;5000002;28;20515;-69
2023/05/16 03:41:19;;;;;;;17.15;4.05;;;;;;;21.43;29.93;99940.41;5016965;28;20060;-70
2023/05/16 03:43:46;;;;;;;7.15;3.10;;;;;;;21.38;29.77;99954.56;5017677;28;20041;-67
2023/05/16 03:46:12;;;;;;;7.80;3.65;;;;;;;21.47;29.81;99950.56;5033087;28;20459;-67
2023/05/16 03:48:39;;;;;;;12.30;4.00;;;;;;;21.61;29.70;99953.97;5016175;28;20055;-68
2023/05/16 03:51:09;;;;;;;;;;;;;;;22.71;29.04;99954.66;4970546;28;20065;-68
2023/05/16 03:53:36;;;;;;;8.98;4.50;;;;;;;22.16;29.94;99953.03;5016526;28;19924;-71
2023/05/16 03:56:04;;;;;;;17.85;4.65;;;;;;;22.11;29.90;99960.19;5033042;28;20088;-68
2023/05/16 03:58:30;;;;;;;22.90;4.55;;;;;;;22.20;30.07;99970.50;5016302;28;20084;-68
2023/05/16 04:00:56;;;;;;;23.95;5.18;;;;;;;22.17;29.71;99967.41;5016524;28;20439;-67
2023/05/16 04:03:27;;;;;;;30.52;5.47;;;;;;;21.97;29.90;99966.78;5031075;28;20037;-68
2023/05/16 04:05:54;;;;;;;24.13;5.45;;;;;;;22.05;30.29;99970.00;5030072;28;20044;-68
2023/05/16 04:08:20;;;;;;;14.65;3.25;;;;;;;21.98;30.25;99963.84;4971061;28;20081;-68
2023/05/16 04:10:46;;;;;;;17.95;3.50;;;;;;;22.44;29.73;99957.91;4943905;28;20050;-68
2023/05/16 04:13:15;;;;;;;10.65;2.78;;;;;;;22.42;29.73;99958.13;4975908;28;20068;-69
2023/05/16 04:15:40;;;;;;;13.10;2.80;;;;;;;22.58;29.61;99956.72;4946006;28;20042;-68
2023/05/16 04:18:08;;;;;;;14.93;3.17;;;;;;;22.95;29.55;99956.44;4961714;28;20065;-68
2023/05/16 04:20:34;;;;;;;12.75;2.40;;;;;;;22.45;28.75;99970.41;4961584;28;20057;-68
2023/05/16 04:23:00;;;;;;;10.35;2.70;;;;;;;22.44;29.26;99976.84;4961857;28;20050;-68
2023/05/16 04:25:26;;;;;;;6.70;2.45;;;;;;;22.69;29.02;99972.22;4961694;28;20410;-68
2023/05/16 04:27:52;;;;;;;12.13;3.00;;;;;;;22.88;28.62;99980.06;4945859;28;20070;-68
2023/05/16 04:30:19;;;;;;;8.25;2.70;;;;;;;22.82;28.77;99977.44;4958526;28;20062;-68
2023/05/16 04:32:47;;;;;;;5.93;2.30;;;;;;;22.96;28.51;99976.22;4942729;28;20150;-68
2023/05/16 04:35:15;;;;;;;18.58;2.60;;;;;;;22.86;29.12;99981.38;4942322;28;20146;-68
2023/05/16 04:37:41;;;;;;;11.43;1.90;;;;;;;22.78;28.36;99979.81;4953246;29;20053;-68
2023/05/16 04:40:09;;;;;;;6.63;2.25;;;;;;;22.84;29.11;99983.47;4973130;28;20493;-68
2023/05/16 04:42:35;;;;;;;9.95;2.00;;;;;;;23.02;28.34;99986.97;4978892;28;20049;-68
2023/05/16 04:45:02;;;;;;;7.55;2.40;;;;;;;22.94;28.50;99981.06;4995187;28;20080;-68
2023/05/16 04:47:30;;;;;;;13.15;2.42;;;;;;;23.08;28.31;99979.78;5011516;28;20150;-68
2023/05/16 04:49:56;;;;;;;12.93;2.45;;;;;;;23.38;28.05;99985.22;4994745;28;20042;-67
2023/05/16 04:52:22;;;;;;;8.25;1.92;;;;;;;23.51;27.42;99982.31;5010349;28;20057;-68
2023/05/16 04:54:51;;;;;;;8.40;1.90;;;;;;;24.11;27.46;99987.31;4995425;28;20045;-67
2023/05/16 04:57:17;;;;;;;10.05;2.35;;;;;;;23.75;27.70;99989.41;5011146;28;20069;-67
2023/05/16 04:59:43;;;;;;;7.57;1.92;;;;;;;23.89;27.66;99988.13;5012762;28;20100;-67
2023/05/16 05:02:08;;;;;;;10.85;1.80;;;;;;;23.95;26.92;99998.03;5016454;28;20053;-67
2023/05/16 05:04:34;;;;;;;4.00;1.60;;;;;;;23.86;26.77;100000.28;4983871;28;20038;-68
2023/05/16 05:07:00;;;;;;;4.55;1.88;;;;;;;23.45;27.29;99997.59;4967602;28;20077;-68
2023/05/16 05:09:26;;;;;;;4.70;1.95;;;;;;;23.73;27.28;99986.94;4981300;28;20095;-68
2023/05/16 05:11:52;;;;;;;8.75;1.90;;;;;;;23.60;27.32;100008.88;4984733;28;20075;-68
2023/05/16 05:14:42;;;;;;;4.88;1.80;;;;;;;24.12;27.18;100004.44;5001181;28;20071;-68
2023/05/16 05:17:08;;;;;;;6.88;1.63;;;;;;;24.12;27.05;100004.44;5016542;28;20536;-68
2023/05/16 05:19:34;;;;;;;6.82;1.83;;;;;;;24.35;26.86;100012.56;4984447;28;20084;-68
2023/05/16 05:22:00;;;;;;;5.35;1.60;;;;;;;24.17;26.36;100010.81;4999578;28;20386;-68
2023/05/16 05:24:26;;;;;;;5.47;1.77;;;;;;;24.32;26.36;100004.91;4984564;28;20140;-67
2023/05/16 05:26:53;;;;;;;3.72;1.80;;;;;;;24.62;26.48;100014.53;4984582;28;20073;-67
2023/05/16 05:29:19;;;;;;;6.63;1.70;;;;;;;24.67;25.58;100013.84;4984810;28;20056;-68
2023/05/16 05:31:45;;;;;;;10.90;1.88;;;;;;;24.53;25.48;100020.56;4984500;28;20098;-67
2023/05/16 05:34:10;;;;;;;13.95;2.10;;;;;;;24.78;24.92;100019.25;4984410;28;20439;-68
2023/05/16 05:36:36;;;;;;;11.57;2.25;;;;;;;24.83;24.61;100015.81;5000695;28;20339;-67
2023/05/16 05:39:02;;;;;;;4.28;1.95;;;;;;;25.05;24.33;100021.41;5016667;28;20103;-68
2023/05/16 05:41:28;;;;;;;8.77;1.60;;;;;;;25.16;24.05;100020.53;5000436;28;20186;-68
2023/05/16 05:43:55;;;;;;;7.47;1.70;;;;;;;25.34;23.69;100026.63;5000286;28;20042;-68
2023/05/16 05:46:22;;;;;;;8.65;1.40;;;;;;;25.37;23.42;100031.56;5000439;28;20127;-68
2023/05/16 05:48:48;;;;;;;6.57;1.75;;;;;;;25.40;23.01;100049.31;5000459;28;20049;-68
2023/05/16 05:51:14;;;;;;;12.82;2.00;;;;;;;25.43;22.92;100036.03;5000200;28;20045;-67
2023/05/16 05:53:40;;;;;;;8.02;1.38;;;;;;;25.29;21.56;100036.56;5000140;28;20041;-67
2023/05/16 05:56:06;;;;;;;3.10;1.20;;;;;;;24.93;20.99;100043.19;5000235;28;20132;-68
2023/05/16 05:58:32;;;;;;;4.18;1.60;;;;;;;25.32;21.81;100028.75;5000168;28;20136;-68
2023/05/16 06:00:58;;;;;;;4.63;1.10;;;;;;;25.51;20.76;100043.78;4999997;28;20448;-67
2023/05/16 06:03:24;;;;;;;9.57;1.77;;;;;;;25.59;20.90;100037.13;5016479;28;20037;-68
2023/05/16 06:05:50;;;;;;;5.65;1.20;;;;;;;25.87;20.52;100050.69;5000172;28;20053;-68
2023/05/16 06:08:17;;;;;;;2.65;1.13;;;;;;;25.28;20.22;100052.03;5018729;28;20067;-67
2023/05/16 06:10:43;;;;;;;4.13;1.50;;;;;;;25.52;20.23;100050.91;4985827;28;20541;-68
2023/05/16 06:13:09;;;;;;;6.07;1.00;;;;;;;25.70;20.22;100047.94;4986100;28;20171;-68
2023/05/16 06:15:35;;;;;;;2.55;0.80;;;;;;;25.74;19.95;100045.56;5018414;28;20064;-68
2023/05/16 06:18:01;;;;;;;5.45;1.23;;;;;;;26.36;19.74;100047.13;4985930;28;20477;-68
2023/05/16 06:20:27;;;;;;;10.60;1.20;;;;;;;26.16;19.77;100055.81;4985783;28;20045;-68
2023/05/16 06:22:53;;;;;;;5.22;1.00;;;;;;;26.14;19.71;100047.06;4986062;28;20075;-67
2023/05/16 06:25:20;;;;;;;6.80;1.30;;;;;;;26.49;19.81;100066.66;5001905;28;20052;-68
2023/05/16 06:27:46;;;;;;;3.47;1.02;;;;;;;26.39;19.65;100055.63;5002060;28;20063;-68
2023/05/16 06:30:12;;;;;;;5.20;1.23;;;;;;;26.28;20.10;100042.94;5001910;28;20045;-68
2023/05/16 06:32:42;;;;;;;4.15;1.20;;;;;;;26.51;19.87;100046.53;5017783;28;20063;-68
2023/05/16 06:35:08;;;;;;;5.90;2.15;;;;;;;27.05;19.80;100042.88;5002317;28;20045;-68
2023/05/16 06:37:34;;;;;;;9.80;1.00;;;;;;;26.60;19.40;100050.47;4985588;28;20041;-68
2023/05/16 06:40:00;;;;;;;3.38;0.95;;;;;;;26.45;19.58;100060.06;4982712;28;20060;-68
2023/05/16 06:42:26;;;;;;;1.10;0.80;;;;;;;26.74;19.21;100051.78;4999463;28;20044;-68
2023/05/16 06:44:54;;;;;;;4.35;1.23;;;;;;;26.53;19.81;100042.47;4999847;28;20049;-68
2023/05/16 06:47:20;;;;;;;3.97;0.98;;;;;;;26.64;19.75;100044.28;4999256;28;20496;-68
2023/05/16 06:49:46;;;;;;;4.68;1.10;;;;;;;26.57;19.18;100050.97;4999061;28;20053;-68
2023/05/16 06:52:12;;;;;;;4.10;1.00;;;;;;;26.78;19.31;100047.47;4999144;28;20074;-67
2023/05/16 06:54:38;;;;;;;18.55;1.55;;;;;;;26.75;18.62;100037.91;4999027;28;20539;-68
2023/05/16 06:57:04;;;;;;;9.32;0.98;;;;;;;26.29;18.29;100041.84;4998775;28;20488;-68
2023/05/16 06:59:30;;;;;;;2.20;0.73;;;;;;;26.57;18.31;100037.34;4998756;28;20107;-68
2023/05/16 07:01:56;;;;;;;5.00;0.90;;;;;;;26.57;18.61;100040.06;4999029;28;20048;-68
2023/05/16 07:04:22;;;;;;;2.50;1.20;;;;;;;26.44;18.51;100035.81;4999082;28;20045;-67
2023/05/16 07:06:47;;;;;;;3.20;0.98;;;;;;;26.70;18.65;100031.53;4998561;28;20045;-68
2023/05/16 07:09:13;;;;;;;10.65;1.00;;;;;;;27.18;18.07;100034.31;4998614;28;20095;-68
2023/05/16 07:11:39;;;;;;;5.18;0.90;;;;;;;28.05;17.51;100043.91;4998585;28;20057;-68
2023/05/16 07:14:05;;;;;;;4.32;0.80;;;;;;;28.69;16.85;100033.69;4998679;28;20045;-68
2023/05/16 07:16:31;;;;;;;8.63;1.08;;;;;;;29.69;15.97;100035.97;4998569;28;20041;-68
2023/05/16 07:18:57;;;;;;;6.35;1.00;;;;;;;30.98;15.08;100037.66;4982331;28;20479;-68
2023/05/16 07:21:23;;;;;;;2.80;0.90;;;;;;;32.26;13.51;100032.66;4982547;28;20098;-69
2023/05/16 07:23:51;;;;;;;2.22;0.80;;;;;;;33.22;12.35;100023.31;4982764;28;20141;-68
2023/05/16 07:26:17;;;;;;;1.48;0.80;;;;;;;34.04;10.68;100033.66;4982363;28;20038;-68
2023/05/16 07:28:43;;;;;;;3.10;0.90;;;;;;;34.52;9.97;100036.94;4982436;28;20477;-68
2023/05/16 07:31:09;;;;;;;1.75;0.85;;;;;;;36.22;9.57;100023.94;4982279;28;20144;-69
2023/05/16 07:33:35;;;;;;;2.60;0.90;;;;;;;38.09;8.14;100038.22;5015428;28;20076;-68
2023/05/16 07:36:01;;;;;;;13.70;1.65;;;;;;;38.50;7.65;100035.66;4982567;28;20037;-69
2023/05/16 07:38:27;;;;;;;1.83;0.85;;;;;;;39.25;7.10;100042.34;4998774;28;20045;-69
2023/05/16 07:40:54;;;;;;;3.03;0.98;;;;;;;39.41;7.56;100037.81;4982763;28;20481;-69
2023/05/16 07:43:21;;;;;;;4.65;1.08;;;;;;;41.53;6.79;100036.53;4997956;28;20045;-69
2023/05/16 07:45:47;;;;;;;4.13;1.10;;;;;;;42.17;6.11;100042.78;4998190;28;20068;-70
2023/05/16 07:48:12;;;;;;;4.97;1.08;;;;;;;41.52;6.41;100027.34;4998534;28;20496;-69
2023/05/16 07:50:39;;;;;;;14.15;0.88;;;;;;;40.91;6.88;100034.16;4998462;28;20044;-68
2023/05/16 07:53:05;;;;;;;5.82;1.20;;;;;;;41.17;6.87;100026.25;4998422;28;20310;-69
2023/05/16 07:55:31;;;;;;;1.95;1.30;;;;;;;43.00;6.27;100020.19;5014824;28;20140;-69
2023/05/16 07:57:57;;;;;;;2.65;1.00;;;;;;;44.64;5.66;100038.84;4998442;28;20045;-69
2023/05/16 08:00:23;;;;;;;4.85;1.05;;;;;;;46.16;4.89;100034.19;4998067;28;20052;-69
2023/05/16 08:02:50;;;;;;;2.63;1.10;;;;;;;47.02;4.31;100031.75;4998249;28;20051;-69
2023/05/16 08:05:16;;;;;;;5.97;1.02;;;;;;;47.51;4.04;100027.25;4998249;28;20037;-69
2023/05/16 08:07:41;;;;;;;14.45;1.05;;;;;;;47.89;3.57;100039.06;4998071;28;20140;-69
2023/05/16 08:10:08;;;;;;;3.42;1.00;;;;;;;46.87;4.18;100028.03;4982015;28;20042;-69
2023/05/16 08:12:34;;;;;;;8.32;1.50;;;;;;;46.98;4.70;100014.84;4998030;28;20469;-69
2023/05/16 08:15:00;;;;;;;4.60;1.02;;;;;;;45.02;4.81;100023.84;4998315;28;20045;-69
2023/05/16 08:17:26;;;;;;;10.45;1.20;;;;;;;45.66;4.68;100004.69;4998103;28;20045;-69
2023/05/16 08:19:52;;;;;;;7.70;1.15;;;;;;;46.83;3.88;100013.13;4997824;28;20061;-69
2023/05/16 08:22:17;;;;;;;16.35;1.10;;;;;;;45.61;4.17;100024.69;4998065;28;20064;-69
2023/05/16 08:24:43;;;;;;;8.65;1.23;;;;;;;45.05;4.40;100007.06;4981721;28;20037;-70
2023/05/16 08:27:10;;;;;;;2.50;0.75;;;;;;;44.73;4.57;100014.94;5014505;28;20172;-69
2023/05/16 08:29:36;;;;;;;5.25;0.80;;;;;;;45.93;4.31;99999.81;4997875;28;20046;-69
2023/05/16 08:32:02;;;;;;;7.22;0.82;;;;;;;48.01;3.40;100002.09;5030770;28;20466;-69
2023/05/16 08:34:32;;;;;;;2.03;0.90;;;;;;;49.97;3.09;99995.31;4998143;28;20041;-69
2023/05/16 08:36:59;;;;;;;3.50;0.88;;;;;;;48.51;3.06;100010.22;4998180;28;20046;-69
2023/05/16 08:39:25;;;;;;;6.97;0.80;;;;;;;48.67;2.63;100026.78;4981757;28;20052;-69
2023/05/16 08:41:51;;;;;;;6.57;0.88;;;;;;;45.35;3.90;100007.09;4997674;28;20389;-70
2023/05/16 08:44:20;;;;;;;6.32;1.10;;;;;;;43.42;4.95;100007.19;4997775;28;20045;-69
2023/05/16 08:46:50;;;;;;;4.45;0.77;;;;;;;43.40;4.99;99991.94;4998313;28;20052;-69
2023/05/16 08:49:18;;;;;;;1.15;0.70;;;;;;;42.33;5.66;99987.78;4982154;28;20037;-69
2023/05/16 08:51:48;;;;;;;3.63;0.77;;;;;;;45.26;4.64;99978.47;4981461;28;20103;-69
2023/05/16 08:54:15;;;;;;;6.13;0.82;;;;;;;47.19;3.62;99986.84;4997713;28;20481;-69
2023/05/16 08:56:41;;;;;;;7.45;0.80;;;;;;;47.41;3.11;99997.03;5000823;28;20044;-69
2023/05/16 08:59:08;;;;;;;5.43;0.80;;;;;;;45.76;3.81;99983.59;5001177;28;20073;-69
2023/05/16 09:01:35;;;;;;;1.67;0.93;;;;;;;45.53;3.59;99985.69;5001005;28;20056;-69
2023/05/16 09:04:02;;;;;;;4.53;1.13;;;;;;;44.53;4.27;100004.97;5001306;28;20052;-69
2023/05/16 09:06:28;;;;;;;5.05;0.80;;;;;;;43.10;4.63;99974.91;5001119;28;20095;-69
2023/05/16 09:08:55;;;;;;;5.97;0.80;;;;;;;45.64;4.15;99983.81;5001017;28;20041;-70
2023/05/16 09:11:21;;;;;;;3.30;0.70;;;;;;;45.97;3.62;99990.22;5000912;28;20068;-69
2023/05/16 09:13:48;;;;;;;3.55;0.82;;;;;;;44.98;4.11;99976.06;4984963;28;20369;-69
2023/05/16 09:16:16;;;;;;;3.90;0.80;;;;;;;46.61;3.59;99980.41;5000899;28;20452;-69
2023/05/16 09:18:43;;;;;;;1.77;0.68;;;;;;;46.34;3.71;99969.72;5000819;28;20485;-70
2023/05/16 09:21:12;;;;;;;4.40;0.68;;;;;;;46.61;3.02;99980.41;5000685;28;20056;-70
2023/05/16 09:23:38;;;;;;;11.45;0.80;;;;;;;45.04;3.73;99968.97;4984599;28;20056;-69
2023/05/16 09:26:06;;;;;;;12.43;0.85;;;;;;;43.83;4.04;99994.44;5000805;28;20048;-69
2023/05/16 09:28:33;;;;;;;8.90;0.80;;;;;;;43.76;4.26;99969.94;4985029;28;20072;-69
2023/05/16 09:30:58;;;;;;;7.32;0.80;;;;;;;45.93;4.17;99971.72;5000557;28;20056;-69
2023/05/16 09:33:28;;;;;;;5.15;0.70;;;;;;;46.64;3.52;99970.41;5000585;28;20045;-70
2023/05/16 09:36:02;;;;;;;3.25;0.52;;;;;;;47.49;3.05;99964.88;5000607;28;20049;-69
2023/05/16 09:38:28;;;;;;;8.63;0.80;;;;;;;47.50;3.47;99972.13;4984173;28;20049;-70
2023/05/16 09:40:54;;;;;;;4.57;0.90;;;;;;;49.69;2.34;99951.09;5000303;28;20107;-70
2023/05/16 09:43:25;;;;;;;2.22;0.60;;;;;;;51.68;1.72;99972.28;4984394;28;20041;-70
2023/05/16 09:45:51;;;;;;;4.65;0.70;;;;;;;52.55;1.46;99966.47;5000327;28;20041;-70
2023/05/16 09:48:17;;;;;;;3.97;0.50;;;;;;;50.32;1.99;99955.50;5016477;28;20496;-70
2023/05/16 09:50:51;;;;;;;7.78;0.80;;;;;;;49.34;2.79;99953.28;4984118;28;20041;-70
2023/05/16 09:53:29;;;;;;;9.30;0.82;;;;;;;50.26;2.21;99946.66;4984572;28;20440;-70
2023/05/16 09:56:13;;;;;;;5.22;0.80;;;;;;;51.51;2.04;99947.78;5000345;28;20405;-70
2023/05/16 09:58:41;;;;;;;6.20;0.80;;;;;;;52.81;1.44;99942.88;5000045;28;20076;-70
2023/05/16 10:01:08;;;;;;;5.53;1.08;;;;;;;50.44;1.80;99969.19;5000014;28;20132;-71
2023/05/16 10:03:36;;;;;;;4.13;1.00;;;;;;;51.52;1.96;99932.38;5000241;28;20037;-70
2023/05/16 10:06:02;;;;;;;8.35;0.80;;;;;;;49.01;2.82;99932.00;4999937;28;20049;-70
2023/05/16 10:08:34;;;;;;;6.18;0.80;;;;;;;46.67;3.54;99930.25;4983361;28;20164;-69
2023/05/16 10:11:05;;;;;;;6.65;0.70;;;;;;;45.66;4.15;99920.47;5000456;28;20037;-70
2023/05/16 10:13:36;;;;;;;5.18;0.60;;;;;;;47.43;3.54;99918.63;5000012;28;20064;-70
2023/05/16 10:16:12;;;;;;;4.25;0.80;;;;;;;46.21;4.02;99913.00;4999899;28;20053;-70
2023/05/16 10:18:40;;;;;;;3.13;0.80;;;;;;;47.54;3.77;99916.66;4999561;28;20134;-70
2023/05/16 10:21:10;;;;;;;4.32;0.80;;;;;;;48.07;3.12;99944.16;4983940;28;20473;-70
2023/05/16 10:23:38;;;;;;;5.93;1.10;;;;;;;45.71;3.96;99902.47;4983817;28;20038;-70
2023/05/16 10:26:05;;;;;;;4.47;1.20;;;;;;;45.11;4.56;99904.56;4983823;28;20103;-70
2023/05/16 10:28:31;;;;;;;12.50;1.13;;;;;;;46.94;3.62;99929.66;4983400;28;20045;-70
2023/05/16 10:30:58;;;;;;;5.20;0.90;;;;;;;46.59;4.09;99904.09;4982233;28;20104;-70
2023/05/16 10:33:24;;;;;;;6.20;1.00;;;;;;;46.64;4.06;99903.72;4982225;28;20141;-70
2023/05/16 10:35:51;;;;;;;14.55;1.35;;;;;;;43.49;5.28;99903.84;4982178;28;20084;-70
2023/05/16 10:38:17;;;;;;;3.22;0.70;;;;;;;42.63;5.94;99904.28;4982342;28;20044;-70
2023/05/16 10:40:44;;;;;;;6.65;1.13;;;;;;;43.02;5.92;99892.84;4982188;28;20041;-70
2023/05/16 10:43:10;;;;;;;5.53;0.88;;;;;;;45.09;5.32;99892.13;4998060;28;20049;-70
2023/05/16 10:45:40;;;;;;;4.32;0.80;;;;;;;43.31;5.58;99901.84;4982431;28;20045;-70
2023/05/16 10:48:08;;;;;;;6.57;0.80;;;;;;;43.48;5.61;99885.41;4998669;28;20148;-70
2023/05/16 10:50:44;;;;;;;8.70;1.00;;;;;;;45.15;5.18;99882.97;4982175;28;20052;-69
2023/05/16 10:53:18;;;;;;;5.07;0.70;;;;;;;44.97;4.99;99904.34;4998352;28;20144;-69
2023/05/16 10:56:07;;;;;;;4.20;0.90;;;;;;;43.69;5.38;99899.03;4982148;28;20057;-69
2023/05/16 10:58:37;;;;;;;3.83;0.95;;;;;;;42.54;5.89;99868.19;4989562;28;20499;-69
2023/05/16 11:01:22;;;;;;;3.65;0.77;;;;;;;43.69;5.47;99911.00;4981812;28;20045;-70
2023/05/16 11:04:09;;;;;;;5.28;0.90;;;;;;;39.87;7.45;99870.72;4981752;28;20377;-69
2023/05/16 11:06:40;;;;;;;6.05;0.80;;;;;;;38.63;8.58;99865.28;4981658;28;20045;-69
2023/05/16 11:09:10;;;;;;;10.90;1.58;;;;;;;38.52;8.44;99866.78;4994686;28;20056;-69
2023/05/16 11:11:39;;;;;;;;;;;;;;;39.37;8.13;99870.06;4999744;28;20053;-69
2023/05/16 11:14:05;;;;;;;14.45;1.80;;;;;;;38.67;8.59;99859.88;4998474;28;20392;-70
2023/05/16 11:16:33;;;;;;;10.82;1.20;;;;;;;38.88;8.23;99865.41;4998631;28;20624;-69
2023/05/16 11:19:07;;;;;;;6.25;0.70;;;;;;;39.56;8.15;99843.41;5000170;28;20068;-69
2023/05/16 11:22:15;;;;;;;5.50;0.70;;;;;;;37.89;8.79;99858.63;4982343;28;20469;-69
2023/05/16 11:24:55;;;;;;;3.75;0.80;;;;;;;35.18;10.50;99879.81;4977998;28;20053;-68
2023/05/16 11:27:43;;;;;;;11.07;0.85;;;;;;;33.43;11.73;99873.22;4977909;28;20054;-68
2023/05/16 11:30:08;;;;;;;10.50;0.82;;;;;;;32.05;12.61;99843.50;4990995;28;20628;-68
2023/05/16 11:32:37;;;;;;;2.17;0.70;;;;;;;32.54;12.48;99847.56;4987007;28;20041;-67